sensor_id;sensor_type;location;lat;lon;timestamp;P1;durP1;ratioP1;P2;durP2;ratioP2
18224;SDS011;9237;48.590;8.854;2022-08-11T00:00:20;0.70;;;0.70;;
18224;SDS011;9237;48.590;8.854;2022-08-11T00:03:02;0.70;;;0.70;;
18224;SDS011;9237;48.590;8.854;2022-08-11T00:05:31;0.60;;;0.60;;
18224;SDS011;9237;48.590;8.854;2022-08-11T00:08:08;0.70;;;0.70;;
18224;SDS011;9237;48.590;8.854;2022-08-11T00:10:37;0.60;;;0.60;;
18224;SDS011;9237;48.590;8.854;2022-08-11T00:13:06;0.60;;;0.60;;
18224;SDS011;9237;48.590;8.854;2022-08-11T00:15:37;0.70;;;0.70;;
18224;SDS011;9237;48.590;8.854;2022-08-11T00:18:07;0.60;;;0.60;;
18224;SDS011;9237;48.590;8.854;2022-08-11T00:20:37;0.70;;;0.70;;
18224;SDS011;9237;48.590;8.854;2022-08-11T00:23:07;0.60;;;0.60;;
18224;SDS011;9237;48.590;8.854;2022-08-11T00:25:37;0.60;;;0.60;;
18224;SDS011;9237;48.590;8.854;2022-08-11T00:31:00;0.60;;;0.60;;
18224;SDS011;9237;48.590;8.854;2022-08-11T00:33:31;0.70;;;0.70;;
18224;SDS011;9237;48.590;8.854;2022-08-11T00:36:00;0.60;;;0.60;;
18224;SDS011;9237;48.590;8.854;2022-08-11T00:38:31;0.67;;;0.67;;
18224;SDS011;9237;48.590;8.854;2022-08-11T00:41:03;0.70;;;0.70;;
18224;SDS011;9237;48.590;8.854;2022-08-11T00:43:59;0.60;;;0.60;;
18224;SDS011;9237;48.590;8.854;2022-08-11T00:46:39;0.60;;;0.60;;
18224;SDS011;9237;48.590;8.854;2022-08-11T00:49:15;0.60;;;0.60;;
18224;SDS011;9237;48.590;8.854;2022-08-11T00:51:58;0.60;;;0.60;;
18224;SDS011;9237;48.590;8.854;2022-08-11T00:54:42;0.60;;;0.60;;
18224;SDS011;9237;48.590;8.854;2022-08-11T01:00:42;0.70;;;0.70;;
18224;SDS011;9237;48.590;8.854;2022-08-11T01:03:26;0.70;;;0.70;;
18224;SDS011;9237;48.590;8.854;2022-08-11T01:06:18;0.60;;;0.60;;
18224;SDS011;9237;48.590;8.854;2022-08-11T01:15:06;0.67;;;0.67;;
18224;SDS011;9237;48.590;8.854;2022-08-11T01:18:16;0.60;;;0.60;;
18224;SDS011;9237;48.590;8.854;2022-08-11T01:21:13;0.60;;;0.60;;
18224;SDS011;9237;48.590;8.854;2022-08-11T01:27:41;0.60;;;0.60;;
18224;SDS011;9237;48.590;8.854;2022-08-11T01:42:56;0.60;;;0.60;;
18224;SDS011;9237;48.590;8.854;2022-08-11T01:46:10;0.60;;;0.60;;
18224;SDS011;9237;48.590;8.854;2022-08-11T01:48:41;0.60;;;0.60;;
18224;SDS011;9237;48.590;8.854;2022-08-11T01:51:16;0.60;;;0.60;;
18224;SDS011;9237;48.590;8.854;2022-08-11T01:53:52;0.60;;;0.60;;
18224;SDS011;9237;48.590;8.854;2022-08-11T01:56:31;0.60;;;0.60;;
18224;SDS011;9237;48.590;8.854;2022-08-11T01:59:07;0.70;;;0.70;;
18224;SDS011;9237;48.590;8.854;2022-08-11T02:01:44;0.60;;;0.60;;
18224;SDS011;9237;48.590;8.854;2022-08-11T02:04:28;0.60;;;0.60;;
18224;SDS011;9237;48.590;8.854;2022-08-11T02:07:03;0.60;;;0.60;;
18224;SDS011;9237;48.590;8.854;2022-08-11T02:09:48;0.60;;;0.60;;
18224;SDS011;9237;48.590;8.854;2022-08-11T02:12:26;0.60;;;0.60;;
18224;SDS011;9237;48.590;8.854;2022-08-11T02:15:13;0.60;;;0.60;;
18224;SDS011;9237;48.590;8.854;2022-08-11T02:17:47;0.60;;;0.60;;
18224;SDS011;9237;48.590;8.854;2022-08-11T02:20:25;0.60;;;0.60;;
18224;SDS011;9237;48.590;8.854;2022-08-11T02:23:24;0.60;;;0.60;;
18224;SDS011;9237;48.590;8.854;2022-08-11T02:26:07;0.60;;;0.60;;
18224;SDS011;9237;48.590;8.854;2022-08-11T02:28:44;0.60;;;0.60;;
18224;SDS011;9237;48.590;8.854;2022-08-11T02:31:22;0.60;;;0.60;;
18224;SDS011;9237;48.590;8.854;2022-08-11T02:34:17;0.60;;;0.60;;
18224;SDS011;9237;48.590;8.854;2022-08-11T02:36:54;0.63;;;0.63;;
18224;SDS011;9237;48.590;8.854;2022-08-11T02:39:27;0.60;;;0.60;;
18224;SDS011;9237;48.590;8.854;2022-08-11T02:42:04;0.60;;;0.60;;
18224;SDS011;9237;48.590;8.854;2022-08-11T02:44:54;0.60;;;0.60;;
18224;SDS011;9237;48.590;8.854;2022-08-11T02:47:38;0.70;;;0.70;;
18224;SDS011;9237;48.590;8.854;2022-08-11T02:50:35;0.60;;;0.60;;
18224;SDS011;9237;48.590;8.854;2022-08-11T02:53:08;0.60;;;0.60;;
18224;SDS011;9237;48.590;8.854;2022-08-11T02:55:44;0.60;;;0.60;;
18224;SDS011;9237;48.590;8.854;2022-08-11T02:58:21;0.60;;;0.60;;
18224;SDS011;9237;48.590;8.854;2022-08-11T03:03:53;0.67;;;0.67;;
18224;SDS011;9237;48.590;8.854;2022-08-11T03:06:30;0.60;;;0.60;;
18224;SDS011;9237;48.590;8.854;2022-08-11T03:09:05;0.67;;;0.67;;
18224;SDS011;9237;48.590;8.854;2022-08-11T03:11:46;0.60;;;0.60;;
18224;SDS011;9237;48.590;8.854;2022-08-11T03:14:41;0.70;;;0.70;;
18224;SDS011;9237;48.590;8.854;2022-08-11T03:17:36;0.60;;;0.60;;
18224;SDS011;9237;48.590;8.854;2022-08-11T03:20:13;0.63;;;0.63;;
18224;SDS011;9237;48.590;8.854;2022-08-11T03:22:50;0.60;;;0.60;;
18224;SDS011;9237;48.590;8.854;2022-08-11T03:25:24;0.60;;;0.60;;
18224;SDS011;9237;48.590;8.854;2022-08-11T03:28:00;0.70;;;0.70;;
18224;SDS011;9237;48.590;8.854;2022-08-11T03:30:40;0.60;;;0.60;;
18224;SDS011;9237;48.590;8.854;2022-08-11T03:33:18;0.60;;;0.60;;
18224;SDS011;9237;48.590;8.854;2022-08-11T03:36:17;0.70;;;0.70;;
18224;SDS011;9237;48.590;8.854;2022-08-11T03:39:05;0.60;;;0.60;;
18224;SDS011;9237;48.590;8.854;2022-08-11T03:41:43;0.60;;;0.60;;
18224;SDS011;9237;48.590;8.854;2022-08-11T03:44:31;0.60;;;0.60;;
18224;SDS011;9237;48.590;8.854;2022-08-11T03:47:13;0.60;;;0.60;;
18224;SDS011;9237;48.590;8.854;2022-08-11T03:50:02;0.60;;;0.60;;
18224;SDS011;9237;48.590;8.854;2022-08-11T03:52:46;0.70;;;0.70;;
18224;SDS011;9237;48.590;8.854;2022-08-11T03:55:19;0.60;;;0.60;;
18224;SDS011;9237;48.590;8.854;2022-08-11T04:01:08;0.70;;;0.70;;
18224;SDS011;9237;48.590;8.854;2022-08-11T04:04:06;0.60;;;0.60;;
18224;SDS011;9237;48.590;8.854;2022-08-11T04:16:04;0.70;;;0.70;;
18224;SDS011;9237;48.590;8.854;2022-08-11T04:18:56;0.60;;;0.60;;
18224;SDS011;9237;48.590;8.854;2022-08-11T04:22:13;0.60;;;0.60;;
18224;SDS011;9237;48.590;8.854;2022-08-11T04:25:00;0.63;;;0.63;;
18224;SDS011;9237;48.590;8.854;2022-08-11T04:30:48;0.70;;;0.70;;
18224;SDS011;9237;48.590;8.854;2022-08-11T04:40:07;0.70;;;0.70;;
18224;SDS011;9237;48.590;8.854;2022-08-11T04:46:14;0.70;;;0.70;;
18224;SDS011;9237;48.590;8.854;2022-08-11T04:49:05;0.70;;;0.70;;
18224;SDS011;9237;48.590;8.854;2022-08-11T04:55:40;0.70;;;0.70;;
18224;SDS011;9237;48.590;8.854;2022-08-11T04:58:51;0.70;;;0.70;;
18224;SDS011;9237;48.590;8.854;2022-08-11T05:01:54;0.70;;;0.70;;
18224;SDS011;9237;48.590;8.854;2022-08-11T05:04:52;0.70;;;0.70;;
18224;SDS011;9237;48.590;8.854;2022-08-11T05:13:48;0.70;;;0.70;;
18224;SDS011;9237;48.590;8.854;2022-08-11T05:16:40;0.60;;;0.60;;
18224;SDS011;9237;48.590;8.854;2022-08-11T05:19:42;0.60;;;0.60;;
18224;SDS011;9237;48.590;8.854;2022-08-11T05:22:29;0.60;;;0.60;;
18224;SDS011;9237;48.590;8.854;2022-08-11T05:25:15;0.50;;;0.50;;
18224;SDS011;9237;48.590;8.854;2022-08-11T05:28:07;0.60;;;0.60;;
18224;SDS011;9237;48.590;8.854;2022-08-11T05:30:55;0.60;;;0.60;;
18224;SDS011;9237;48.590;8.854;2022-08-11T05:33:44;0.60;;;0.60;;
18224;SDS011;9237;48.590;8.854;2022-08-11T05:36:32;0.60;;;0.60;;
18224;SDS011;9237;48.590;8.854;2022-08-11T05:39:12;0.60;;;0.60;;
18224;SDS011;9237;48.590;8.854;2022-08-11T05:41:59;0.60;;;0.60;;
18224;SDS011;9237;48.590;8.854;2022-08-11T05:44:46;0.60;;;0.60;;
18224;SDS011;9237;48.590;8.854;2022-08-11T05:47:31;0.60;;;0.60;;
18224;SDS011;9237;48.590;8.854;2022-08-11T05:50:19;0.60;;;0.60;;
18224;SDS011;9237;48.590;8.854;2022-08-11T05:53:07;0.60;;;0.60;;
18224;SDS011;9237;48.590;8.854;2022-08-11T05:55:53;0.60;;;0.60;;
18224;SDS011;9237;48.590;8.854;2022-08-11T05:58:39;0.60;;;0.60;;
18224;SDS011;9237;48.590;8.854;2022-08-11T06:01:11;0.50;;;0.50;;
18224;SDS011;9237;48.590;8.854;2022-08-11T06:03:47;0.50;;;0.50;;
18224;SDS011;9237;48.590;8.854;2022-08-11T06:06:35;0.50;;;0.50;;
18224;SDS011;9237;48.590;8.854;2022-08-11T06:09:05;0.50;;;0.50;;
18224;SDS011;9237;48.590;8.854;2022-08-11T06:11:36;0.50;;;0.50;;
18224;SDS011;9237;48.590;8.854;2022-08-11T06:14:05;0.50;;;0.50;;
18224;SDS011;9237;48.590;8.854;2022-08-11T06:16:34;0.40;;;0.40;;
18224;SDS011;9237;48.590;8.854;2022-08-11T06:19:02;0.50;;;0.50;;
18224;SDS011;9237;48.590;8.854;2022-08-11T06:21:31;0.50;;;0.50;;
18224;SDS011;9237;48.590;8.854;2022-08-11T06:24:00;0.50;;;0.50;;
18224;SDS011;9237;48.590;8.854;2022-08-11T06:26:30;0.50;;;0.50;;
18224;SDS011;9237;48.590;8.854;2022-08-11T06:28:57;0.50;;;0.50;;
18224;SDS011;9237;48.590;8.854;2022-08-11T06:31:25;0.60;;;0.60;;
18224;SDS011;9237;48.590;8.854;2022-08-11T06:33:56;0.50;;;0.50;;
18224;SDS011;9237;48.590;8.854;2022-08-11T06:36:34;0.40;;;0.40;;
18224;SDS011;9237;48.590;8.854;2022-08-11T06:39:12;0.50;;;0.50;;
18224;SDS011;9237;48.590;8.854;2022-08-11T06:41:48;0.40;;;0.40;;
18224;SDS011;9237;48.590;8.854;2022-08-11T06:44:23;0.50;;;0.50;;
18224;SDS011;9237;48.590;8.854;2022-08-11T06:46:59;0.40;;;0.40;;
18224;SDS011;9237;48.590;8.854;2022-08-11T06:49:35;0.40;;;0.40;;
18224;SDS011;9237;48.590;8.854;2022-08-11T06:52:27;0.50;;;0.50;;
18224;SDS011;9237;48.590;8.854;2022-08-11T06:54:57;0.40;;;0.40;;
18224;SDS011;9237;48.590;8.854;2022-08-11T06:57:31;0.40;;;0.40;;
18224;SDS011;9237;48.590;8.854;2022-08-11T07:00:17;0.40;;;0.40;;
18224;SDS011;9237;48.590;8.854;2022-08-11T07:02:56;0.40;;;0.40;;
18224;SDS011;9237;48.590;8.854;2022-08-11T07:05:29;0.40;;;0.40;;
18224;SDS011;9237;48.590;8.854;2022-08-11T07:08:16;0.40;;;0.40;;
18224;SDS011;9237;48.590;8.854;2022-08-11T07:11:39;0.40;;;0.40;;
18224;SDS011;9237;48.590;8.854;2022-08-11T07:14:46;0.40;;;0.40;;
18224;SDS011;9237;48.590;8.854;2022-08-11T07:17:34;0.40;;;0.40;;
18224;SDS011;9237;48.590;8.854;2022-08-11T07:20:07;0.40;;;0.40;;
18224;SDS011;9237;48.590;8.854;2022-08-11T07:22:56;0.40;;;0.40;;
18224;SDS011;9237;48.590;8.854;2022-08-11T07:25:46;0.40;;;0.40;;
18224;SDS011;9237;48.590;8.854;2022-08-11T07:28:37;0.40;;;0.40;;
18224;SDS011;9237;48.590;8.854;2022-08-11T07:31:24;0.47;;;0.47;;
18224;SDS011;9237;48.590;8.854;2022-08-11T07:33:58;0.40;;;0.40;;
18224;SDS011;9237;48.590;8.854;2022-08-11T07:36:38;0.40;;;0.40;;
18224;SDS011;9237;48.590;8.854;2022-08-11T07:39:12;0.40;;;0.40;;
18224;SDS011;9237;48.590;8.854;2022-08-11T07:41:43;0.40;;;0.40;;
18224;SDS011;9237;48.590;8.854;2022-08-11T07:44:12;0.40;;;0.40;;
18224;SDS011;9237;48.590;8.854;2022-08-11T07:46:41;0.40;;;0.40;;
18224;SDS011;9237;48.590;8.854;2022-08-11T07:49:30;0.40;;;0.40;;
18224;SDS011;9237;48.590;8.854;2022-08-11T07:52:17;0.40;;;0.40;;
18224;SDS011;9237;48.590;8.854;2022-08-11T07:54:59;0.40;;;0.40;;
18224;SDS011;9237;48.590;8.854;2022-08-11T07:57:29;0.40;;;0.40;;
18224;SDS011;9237;48.590;8.854;2022-08-11T08:00:15;0.40;;;0.40;;
18224;SDS011;9237;48.590;8.854;2022-08-11T08:03:01;0.30;;;0.30;;
18224;SDS011;9237;48.590;8.854;2022-08-11T08:05:47;0.40;;;0.40;;
18224;SDS011;9237;48.590;8.854;2022-08-11T08:08:33;0.30;;;0.30;;
18224;SDS011;9237;48.590;8.854;2022-08-11T08:11:20;0.40;;;0.40;;
18224;SDS011;9237;48.590;8.854;2022-08-11T08:14:05;0.30;;;0.30;;
18224;SDS011;9237;48.590;8.854;2022-08-11T08:16:52;0.40;;;0.40;;
18224;SDS011;9237;48.590;8.854;2022-08-11T08:19:37;0.30;;;0.30;;
18224;SDS011;9237;48.590;8.854;2022-08-11T08:22:05;0.30;;;0.30;;
18224;SDS011;9237;48.590;8.854;2022-08-11T08:24:32;0.30;;;0.30;;
18224;SDS011;9237;48.590;8.854;2022-08-11T08:27:01;0.30;;;0.30;;
18224;SDS011;9237;48.590;8.854;2022-08-11T08:29:30;0.30;;;0.30;;
18224;SDS011;9237;48.590;8.854;2022-08-11T08:32:17;0.30;;;0.30;;
18224;SDS011;9237;48.590;8.854;2022-08-11T08:34:45;0.30;;;0.30;;
18224;SDS011;9237;48.590;8.854;2022-08-11T08:37:15;0.30;;;0.30;;
18224;SDS011;9237;48.590;8.854;2022-08-11T08:39:44;0.40;;;0.40;;
18224;SDS011;9237;48.590;8.854;2022-08-11T08:42:16;0.30;;;0.30;;
18224;SDS011;9237;48.590;8.854;2022-08-11T08:44:48;0.40;;;0.40;;
18224;SDS011;9237;48.590;8.854;2022-08-11T08:47:17;0.32;;;0.32;;
18224;SDS011;9237;48.590;8.854;2022-08-11T08:49:45;0.30;;;0.30;;
18224;SDS011;9237;48.590;8.854;2022-08-11T08:52:15;0.30;;;0.30;;
18224;SDS011;9237;48.590;8.854;2022-08-11T08:54:45;0.30;;;0.30;;
18224;SDS011;9237;48.590;8.854;2022-08-11T08:57:19;0.30;;;0.30;;
18224;SDS011;9237;48.590;8.854;2022-08-11T08:59:48;0.30;;;0.30;;
18224;SDS011;9237;48.590;8.854;2022-08-11T09:02:17;0.40;;;0.40;;
18224;SDS011;9237;48.590;8.854;2022-08-11T09:04:45;0.32;;;0.32;;
18224;SDS011;9237;48.590;8.854;2022-08-11T09:07:13;0.40;;;0.40;;
18224;SDS011;9237;48.590;8.854;2022-08-11T09:09:42;0.30;;;0.30;;
18224;SDS011;9237;48.590;8.854;2022-08-11T09:12:11;0.40;;;0.40;;
18224;SDS011;9237;48.590;8.854;2022-08-11T09:14:41;0.40;;;0.40;;
18224;SDS011;9237;48.590;8.854;2022-08-11T09:17:28;0.40;;;0.40;;
18224;SDS011;9237;48.590;8.854;2022-08-11T09:19:58;0.40;;;0.40;;
18224;SDS011;9237;48.590;8.854;2022-08-11T09:22:28;0.40;;;0.40;;
18224;SDS011;9237;48.590;8.854;2022-08-11T09:25:15;0.40;;;0.40;;
18224;SDS011;9237;48.590;8.854;2022-08-11T09:28:15;0.40;;;0.40;;
18224;SDS011;9237;48.590;8.854;2022-08-11T09:30:45;0.32;;;0.32;;
18224;SDS011;9237;48.590;8.854;2022-08-11T09:33:18;0.35;;;0.35;;
18224;SDS011;9237;48.590;8.854;2022-08-11T09:35:46;0.30;;;0.30;;
18224;SDS011;9237;48.590;8.854;2022-08-11T09:38:16;0.30;;;0.30;;
18224;SDS011;9237;48.590;8.854;2022-08-11T09:41:02;0.30;;;0.30;;
18224;SDS011;9237;48.590;8.854;2022-08-11T09:43:30;0.32;;;0.32;;
18224;SDS011;9237;48.590;8.854;2022-08-11T09:46:22;0.30;;;0.30;;
18224;SDS011;9237;48.590;8.854;2022-08-11T09:48:52;0.30;;;0.30;;
18224;SDS011;9237;48.590;8.854;2022-08-11T09:51:23;0.30;;;0.30;;
18224;SDS011;9237;48.590;8.854;2022-08-11T09:53:51;0.38;;;0.38;;
18224;SDS011;9237;48.590;8.854;2022-08-11T09:56:19;0.30;;;0.30;;
18224;SDS011;9237;48.590;8.854;2022-08-11T09:59:07;0.32;;;0.32;;
18224;SDS011;9237;48.590;8.854;2022-08-11T10:01:38;0.30;;;0.30;;
18224;SDS011;9237;48.590;8.854;2022-08-11T10:04:09;0.30;;;0.30;;
18224;SDS011;9237;48.590;8.854;2022-08-11T10:06:41;0.30;;;0.30;;
18224;SDS011;9237;48.590;8.854;2022-08-11T10:09:27;0.30;;;0.30;;
18224;SDS011;9237;48.590;8.854;2022-08-11T10:12:01;0.30;;;0.30;;
18224;SDS011;9237;48.590;8.854;2022-08-11T10:14:31;0.30;;;0.30;;
18224;SDS011;9237;48.590;8.854;2022-08-11T10:17:21;0.30;;;0.30;;
18224;SDS011;9237;48.590;8.854;2022-08-11T10:19:49;0.30;;;0.30;;
18224;SDS011;9237;48.590;8.854;2022-08-11T10:22:16;0.20;;;0.20;;
18224;SDS011;9237;48.590;8.854;2022-08-11T10:25:02;0.20;;;0.20;;
18224;SDS011;9237;48.590;8.854;2022-08-11T10:27:47;0.20;;;0.20;;
18224;SDS011;9237;48.590;8.854;2022-08-11T10:30:22;0.20;;;0.20;;
18224;SDS011;9237;48.590;8.854;2022-08-11T10:33:10;0.20;;;0.20;;
18224;SDS011;9237;48.590;8.854;2022-08-11T10:35:55;0.20;;;0.20;;
18224;SDS011;9237;48.590;8.854;2022-08-11T10:38:23;0.20;;;0.20;;
18224;SDS011;9237;48.590;8.854;2022-08-11T10:40:51;0.20;;;0.20;;
18224;SDS011;9237;48.590;8.854;2022-08-11T10:43:34;0.20;;;0.20;;
18224;SDS011;9237;48.590;8.854;2022-08-11T10:46:04;0.20;;;0.20;;
18224;SDS011;9237;48.590;8.854;2022-08-11T10:48:51;0.20;;;0.20;;
18224;SDS011;9237;48.590;8.854;2022-08-11T10:51:20;0.20;;;0.20;;
18224;SDS011;9237;48.590;8.854;2022-08-11T10:54:04;0.30;;;0.30;;
18224;SDS011;9237;48.590;8.854;2022-08-11T10:56:49;0.20;;;0.20;;
18224;SDS011;9237;48.590;8.854;2022-08-11T10:59:35;0.25;;;0.25;;
18224;SDS011;9237;48.590;8.854;2022-08-11T11:02:02;0.30;;;0.30;;
18224;SDS011;9237;48.590;8.854;2022-08-11T11:04:32;0.30;;;0.30;;
18224;SDS011;9237;48.590;8.854;2022-08-11T11:07:09;0.30;;;0.30;;
18224;SDS011;9237;48.590;8.854;2022-08-11T11:09:46;0.25;;;0.25;;
18224;SDS011;9237;48.590;8.854;2022-08-11T11:12:17;0.22;;;0.22;;
18224;SDS011;9237;48.590;8.854;2022-08-11T11:15:06;0.20;;;0.20;;
18224;SDS011;9237;48.590;8.854;2022-08-11T11:17:51;0.20;;;0.20;;
18224;SDS011;9237;48.590;8.854;2022-08-11T11:20:27;0.20;;;0.20;;
18224;SDS011;9237;48.590;8.854;2022-08-11T11:23:00;0.20;;;0.20;;
18224;SDS011;9237;48.590;8.854;2022-08-11T11:25:34;0.20;;;0.20;;
18224;SDS011;9237;48.590;8.854;2022-08-11T11:28:33;0.20;;;0.20;;
18224;SDS011;9237;48.590;8.854;2022-08-11T11:31:18;0.20;;;0.20;;
18224;SDS011;9237;48.590;8.854;2022-08-11T11:34:06;0.20;;;0.20;;
18224;SDS011;9237;48.590;8.854;2022-08-11T11:36:48;0.20;;;0.20;;
18224;SDS011;9237;48.590;8.854;2022-08-11T11:39:20;0.20;;;0.20;;
18224;SDS011;9237;48.590;8.854;2022-08-11T11:41:48;0.20;;;0.20;;
18224;SDS011;9237;48.590;8.854;2022-08-11T11:44:19;0.20;;;0.20;;
18224;SDS011;9237;48.590;8.854;2022-08-11T11:46:47;0.28;;;0.28;;
18224;SDS011;9237;48.590;8.854;2022-08-11T11:49:15;0.20;;;0.20;;
18224;SDS011;9237;48.590;8.854;2022-08-11T11:51:43;0.20;;;0.20;;
18224;SDS011;9237;48.590;8.854;2022-08-11T11:54:14;0.20;;;0.20;;
18224;SDS011;9237;48.590;8.854;2022-08-11T11:56:42;0.20;;;0.20;;
18224;SDS011;9237;48.590;8.854;2022-08-11T11:59:10;0.20;;;0.20;;
18224;SDS011;9237;48.590;8.854;2022-08-11T12:01:56;0.20;;;0.20;;
18224;SDS011;9237;48.590;8.854;2022-08-11T12:04:23;0.30;;;0.30;;
18224;SDS011;9237;48.590;8.854;2022-08-11T12:06:52;0.20;;;0.20;;
18224;SDS011;9237;48.590;8.854;2022-08-11T12:09:41;0.20;;;0.20;;
18224;SDS011;9237;48.590;8.854;2022-08-11T12:12:08;0.20;;;0.20;;
18224;SDS011;9237;48.590;8.854;2022-08-11T12:14:53;0.20;;;0.20;;
18224;SDS011;9237;48.590;8.854;2022-08-11T12:17:20;0.20;;;0.20;;
18224;SDS011;9237;48.590;8.854;2022-08-11T12:19:48;0.20;;;0.20;;
18224;SDS011;9237;48.590;8.854;2022-08-11T12:22:15;0.20;;;0.20;;
18224;SDS011;9237;48.590;8.854;2022-08-11T12:25:01;0.20;;;0.20;;
18224;SDS011;9237;48.590;8.854;2022-08-11T12:27:47;0.20;;;0.20;;
18224;SDS011;9237;48.590;8.854;2022-08-11T12:30:15;0.10;;;0.10;;
18224;SDS011;9237;48.590;8.854;2022-08-11T12:32:44;0.20;;;0.20;;
18224;SDS011;9237;48.590;8.854;2022-08-11T12:35:13;0.20;;;0.20;;
18224;SDS011;9237;48.590;8.854;2022-08-11T12:37:44;0.10;;;0.10;;
18224;SDS011;9237;48.590;8.854;2022-08-11T12:40:15;0.20;;;0.20;;
18224;SDS011;9237;48.590;8.854;2022-08-11T12:43:03;0.20;;;0.20;;
18224;SDS011;9237;48.590;8.854;2022-08-11T12:45:52;0.20;;;0.20;;
18224;SDS011;9237;48.590;8.854;2022-08-11T12:48:22;0.20;;;0.20;;
18224;SDS011;9237;48.590;8.854;2022-08-11T12:51:10;0.20;;;0.20;;
18224;SDS011;9237;48.590;8.854;2022-08-11T12:53:59;0.20;;;0.20;;
18224;SDS011;9237;48.590;8.854;2022-08-11T12:56:37;0.20;;;0.20;;
18224;SDS011;9237;48.590;8.854;2022-08-11T12:59:24;0.10;;;0.10;;
18224;SDS011;9237;48.590;8.854;2022-08-11T13:02:09;0.20;;;0.20;;
18224;SDS011;9237;48.590;8.854;2022-08-11T13:04:57;0.20;;;0.20;;
18224;SDS011;9237;48.590;8.854;2022-08-11T13:07:25;0.20;;;0.20;;
18224;SDS011;9237;48.590;8.854;2022-08-11T13:09:54;0.20;;;0.20;;
18224;SDS011;9237;48.590;8.854;2022-08-11T13:12:23;0.20;;;0.20;;
18224;SDS011;9237;48.590;8.854;2022-08-11T13:15:09;0.20;;;0.20;;
18224;SDS011;9237;48.590;8.854;2022-08-11T13:17:38;0.20;;;0.20;;
18224;SDS011;9237;48.590;8.854;2022-08-11T13:20:06;0.20;;;0.20;;
18224;SDS011;9237;48.590;8.854;2022-08-11T13:22:36;0.20;;;0.20;;
18224;SDS011;9237;48.590;8.854;2022-08-11T13:25:05;0.20;;;0.20;;
18224;SDS011;9237;48.590;8.854;2022-08-11T13:27:34;0.20;;;0.20;;
18224;SDS011;9237;48.590;8.854;2022-08-11T13:30:02;0.20;;;0.20;;
18224;SDS011;9237;48.590;8.854;2022-08-11T13:32:43;0.20;;;0.20;;
18224;SDS011;9237;48.590;8.854;2022-08-11T13:35:12;0.20;;;0.20;;
18224;SDS011;9237;48.590;8.854;2022-08-11T13:37:40;0.20;;;0.20;;
18224;SDS011;9237;48.590;8.854;2022-08-11T13:40:10;0.20;;;0.20;;
18224;SDS011;9237;48.590;8.854;2022-08-11T13:42:40;0.22;;;0.22;;
18224;SDS011;9237;48.590;8.854;2022-08-11T13:45:09;0.20;;;0.20;;
18224;SDS011;9237;48.590;8.854;2022-08-11T13:47:36;0.20;;;0.20;;
18224;SDS011;9237;48.590;8.854;2022-08-11T13:50:05;0.20;;;0.20;;
18224;SDS011;9237;48.590;8.854;2022-08-11T13:52:34;0.20;;;0.20;;
18224;SDS011;9237;48.590;8.854;2022-08-11T13:55:03;0.20;;;0.20;;
18224;SDS011;9237;48.590;8.854;2022-08-11T13:57:32;0.20;;;0.20;;
18224;SDS011;9237;48.590;8.854;2022-08-11T14:00:02;0.20;;;0.20;;
18224;SDS011;9237;48.590;8.854;2022-08-11T14:02:39;0.20;;;0.20;;
18224;SDS011;9237;48.590;8.854;2022-08-11T14:05:10;0.20;;;0.20;;
18224;SDS011;9237;48.590;8.854;2022-08-11T14:07:41;0.20;;;0.20;;
18224;SDS011;9237;48.590;8.854;2022-08-11T14:10:13;0.20;;;0.20;;
18224;SDS011;9237;48.590;8.854;2022-08-11T14:12:42;0.20;;;0.20;;
18224;SDS011;9237;48.590;8.854;2022-08-11T14:15:34;0.20;;;0.20;;
18224;SDS011;9237;48.590;8.854;2022-08-11T14:18:02;0.20;;;0.20;;
18224;SDS011;9237;48.590;8.854;2022-08-11T14:20:42;0.20;;;0.20;;
18224;SDS011;9237;48.590;8.854;2022-08-11T14:23:30;0.20;;;0.20;;
18224;SDS011;9237;48.590;8.854;2022-08-11T14:26:03;0.20;;;0.20;;
18224;SDS011;9237;48.590;8.854;2022-08-11T14:28:50;0.20;;;0.20;;
18224;SDS011;9237;48.590;8.854;2022-08-11T14:31:21;0.20;;;0.20;;
18224;SDS011;9237;48.590;8.854;2022-08-11T14:33:50;0.30;;;0.30;;
18224;SDS011;9237;48.590;8.854;2022-08-11T14:36:20;0.30;;;0.30;;
18224;SDS011;9237;48.590;8.854;2022-08-11T14:38:50;0.30;;;0.30;;
18224;SDS011;9237;48.590;8.854;2022-08-11T14:41:18;0.30;;;0.30;;
18224;SDS011;9237;48.590;8.854;2022-08-11T14:44:04;0.25;;;0.25;;
18224;SDS011;9237;48.590;8.854;2022-08-11T14:46:52;0.20;;;0.20;;
18224;SDS011;9237;48.590;8.854;2022-08-11T14:49:33;0.20;;;0.20;;
18224;SDS011;9237;48.590;8.854;2022-08-11T14:52:02;0.20;;;0.20;;
18224;SDS011;9237;48.590;8.854;2022-08-11T14:54:32;0.20;;;0.20;;
18224;SDS011;9237;48.590;8.854;2022-08-11T14:57:18;0.20;;;0.20;;
18224;SDS011;9237;48.590;8.854;2022-08-11T14:59:47;0.20;;;0.20;;
18224;SDS011;9237;48.590;8.854;2022-08-11T15:02:18;0.20;;;0.20;;
18224;SDS011;9237;48.590;8.854;2022-08-11T15:05:03;0.20;;;0.20;;
18224;SDS011;9237;48.590;8.854;2022-08-11T15:07:32;0.20;;;0.20;;
18224;SDS011;9237;48.590;8.854;2022-08-11T15:10:00;0.20;;;0.20;;
18224;SDS011;9237;48.590;8.854;2022-08-11T15:12:30;0.20;;;0.20;;
18224;SDS011;9237;48.590;8.854;2022-08-11T15:14:59;0.20;;;0.20;;
18224;SDS011;9237;48.590;8.854;2022-08-11T15:17:45;0.20;;;0.20;;
18224;SDS011;9237;48.590;8.854;2022-08-11T15:20:13;0.22;;;0.22;;
18224;SDS011;9237;48.590;8.854;2022-08-11T15:23:11;0.20;;;0.20;;
18224;SDS011;9237;48.590;8.854;2022-08-11T15:25:57;0.20;;;0.20;;
18224;SDS011;9237;48.590;8.854;2022-08-11T15:28:27;0.20;;;0.20;;
18224;SDS011;9237;48.590;8.854;2022-08-11T15:31:14;0.30;;;0.30;;
18224;SDS011;9237;48.590;8.854;2022-08-11T15:34:02;0.30;;;0.30;;
18224;SDS011;9237;48.590;8.854;2022-08-11T15:36:48;0.25;;;0.25;;
18224;SDS011;9237;48.590;8.854;2022-08-11T15:39:38;0.22;;;0.22;;
18224;SDS011;9237;48.590;8.854;2022-08-11T15:42:26;0.30;;;0.30;;
18224;SDS011;9237;48.590;8.854;2022-08-11T15:45:12;0.30;;;0.30;;
18224;SDS011;9237;48.590;8.854;2022-08-11T15:48:01;0.20;;;0.20;;
18224;SDS011;9237;48.590;8.854;2022-08-11T15:50:36;0.30;;;0.30;;
18224;SDS011;9237;48.590;8.854;2022-08-11T15:53:07;0.30;;;0.30;;
18224;SDS011;9237;48.590;8.854;2022-08-11T15:55:43;0.20;;;0.20;;
18224;SDS011;9237;48.590;8.854;2022-08-11T15:58:12;0.20;;;0.20;;
18224;SDS011;9237;48.590;8.854;2022-08-11T16:00:58;0.30;;;0.30;;
18224;SDS011;9237;48.590;8.854;2022-08-11T16:03:46;0.30;;;0.30;;
18224;SDS011;9237;48.590;8.854;2022-08-11T16:06:36;0.38;;;0.38;;
18224;SDS011;9237;48.590;8.854;2022-08-11T16:09:05;0.32;;;0.32;;
18224;SDS011;9237;48.590;8.854;2022-08-11T16:11:34;0.30;;;0.30;;
18224;SDS011;9237;48.590;8.854;2022-08-11T16:14:02;0.30;;;0.30;;
18224;SDS011;9237;48.590;8.854;2022-08-11T16:16:49;0.30;;;0.30;;
18224;SDS011;9237;48.590;8.854;2022-08-11T16:19:17;0.30;;;0.30;;
18224;SDS011;9237;48.590;8.854;2022-08-11T16:21:48;0.30;;;0.30;;
18224;SDS011;9237;48.590;8.854;2022-08-11T16:24:18;0.30;;;0.30;;
18224;SDS011;9237;48.590;8.854;2022-08-11T16:26:45;0.30;;;0.30;;
18224;SDS011;9237;48.590;8.854;2022-08-11T16:29:13;0.30;;;0.30;;
18224;SDS011;9237;48.590;8.854;2022-08-11T16:31:41;0.30;;;0.30;;
18224;SDS011;9237;48.590;8.854;2022-08-11T16:34:30;0.30;;;0.30;;
18224;SDS011;9237;48.590;8.854;2022-08-11T16:37:16;0.30;;;0.30;;
18224;SDS011;9237;48.590;8.854;2022-08-11T16:40:03;0.30;;;0.30;;
18224;SDS011;9237;48.590;8.854;2022-08-11T16:42:33;0.30;;;0.30;;
18224;SDS011;9237;48.590;8.854;2022-08-11T16:45:18;0.30;;;0.30;;
18224;SDS011;9237;48.590;8.854;2022-08-11T16:48:03;0.30;;;0.30;;
18224;SDS011;9237;48.590;8.854;2022-08-11T16:50:33;0.30;;;0.30;;
18224;SDS011;9237;48.590;8.854;2022-08-11T16:53:02;0.35;;;0.35;;
18224;SDS011;9237;48.590;8.854;2022-08-11T16:55:29;0.30;;;0.30;;
18224;SDS011;9237;48.590;8.854;2022-08-11T16:57:58;0.30;;;0.30;;
18224;SDS011;9237;48.590;8.854;2022-08-11T17:00:43;0.30;;;0.30;;
18224;SDS011;9237;48.590;8.854;2022-08-11T17:03:11;0.30;;;0.30;;
18224;SDS011;9237;48.590;8.854;2022-08-11T17:05:56;0.30;;;0.30;;
18224;SDS011;9237;48.590;8.854;2022-08-11T17:08:45;0.30;;;0.30;;
18224;SDS011;9237;48.590;8.854;2022-08-11T17:11:31;0.30;;;0.30;;
18224;SDS011;9237;48.590;8.854;2022-08-11T17:14:23;0.35;;;0.35;;